sensor_id;sensor_type;location;lat;lon;timestamp;pressure;altitude;pressure_sealevel;temperature;humidity
37066;BME280;22981;43.080;25.550;2023-01-30T00:00:58;100044.31;;;1.63;85.21
37066;BME280;22981;43.080;25.550;2023-01-30T00:03:26;100047.95;;;1.66;85.04
37066;BME280;22981;43.080;25.550;2023-01-30T00:05:54;100049.27;;;1.66;85.04
37066;BME280;22981;43.080;25.550;2023-01-30T00:08:22;100051.58;;;1.65;84.97
37066;BME280;22981;43.080;25.550;2023-01-30T00:10:49;100051.91;;;1.66;84.92
37066;BME280;22981;43.080;25.550;2023-01-30T00:13:17;100049.27;;;1.66;84.89
37066;BME280;22981;43.080;25.550;2023-01-30T00:15:44;100051.09;;;1.66;84.85
37066;BME280;22981;43.080;25.550;2023-01-30T00:18:12;100047.13;;;1.66;84.76
37066;BME280;22981;43.080;25.550;2023-01-30T00:20:39;100047.78;;;1.64;84.67
37066;BME280;22981;43.080;25.550;2023-01-30T00:23:07;100051.25;;;1.64;84.64
37066;BME280;22981;43.080;25.550;2023-01-30T00:25:34;100048.77;;;1.63;84.54
37066;BME280;22981;43.080;25.550;2023-01-30T00:28:02;100050.08;;;1.63;84.52
37066;BME280;22981;43.080;25.550;2023-01-30T00:30:30;100044.31;;;1.63;84.54
37066;BME280;22981;43.080;25.550;2023-01-30T00:32:58;100042.84;;;1.65;84.55
37066;BME280;22981;43.080;25.550;2023-01-30T00:35:25;100045.48;;;1.65;84.48
37066;BME280;22981;43.080;25.550;2023-01-30T00:37:57;100042.01;;;1.64;84.49
37066;BME280;22981;43.080;25.550;2023-01-30T00:40:26;100042.01;;;1.64;84.49
37066;BME280;22981;43.080;25.550;2023-01-30T00:42:54;100035.41;;;1.64;84.48
37066;BME280;22981;43.080;25.550;2023-01-30T00:45:42;100036.73;;;1.64;84.48
37066;BME280;22981;43.080;25.550;2023-01-30T00:48:28;100034.09;;;1.64;84.32
37066;BME280;22981;43.080;25.550;2023-01-30T00:50:56;100034.09;;;1.64;84.32
37066;BME280;22981;43.080;25.550;2023-01-30T00:53:23;100028.77;;;1.60;84.38
37066;BME280;22981;43.080;25.550;2023-01-30T00:55:52;100024.60;;;1.58;84.21
37066;BME280;22981;43.080;25.550;2023-01-30T00:58:20;100024.60;;;1.58;84.21
37066;BME280;22981;43.080;25.550;2023-01-30T01:00:48;100025.63;;;1.61;84.36
37066;BME280;22981;43.080;25.550;2023-01-30T01:03:16;100029.75;;;1.59;84.34
37066;BME280;22981;43.080;25.550;2023-01-30T01:05:44;100023.00;;;1.61;84.33
37066;BME280;22981;43.080;25.550;2023-01-30T01:08:12;100029.88;;;1.58;84.33
37066;BME280;22981;43.080;25.550;2023-01-30T01:10:39;100020.96;;;1.55;84.35
37066;BME280;22981;43.080;25.550;2023-01-30T01:13:07;100020.96;;;1.55;84.35
37066;BME280;22981;43.080;25.550;2023-01-30T01:15:36;100020.91;;;1.50;84.16
37066;BME280;22981;43.080;25.550;2023-01-30T01:18:03;100020.55;;;1.49;83.93
37066;BME280;22981;43.080;25.550;2023-01-30T01:20:31;100022.36;;;1.49;83.78
37066;BME280;22981;43.080;25.550;2023-01-30T01:22:58;99999.88;;;1.45;83.64
37066;BME280;22981;43.080;25.550;2023-01-30T01:25:26;100007.67;;;1.46;83.29
37066;BME280;22981;43.080;25.550;2023-01-30T01:27:54;100007.67;;;1.46;83.29
37066;BME280;22981;43.080;25.550;2023-01-30T01:30:21;100000.70;;;1.45;83.31
37066;BME280;22981;43.080;25.550;2023-01-30T01:32:49;99999.76;;;1.46;83.29
37066;BME280;22981;43.080;25.550;2023-01-30T01:35:16;99999.39;;;1.45;83.23
37066;BME280;22981;43.080;25.550;2023-01-30T01:37:45;99999.27;;;1.47;83.15
37066;BME280;22981;43.080;25.550;2023-01-30T01:40:18;99995.64;;;1.48;83.12
37066;BME280;22981;43.080;25.550;2023-01-30T01:43:13;99999.93;;;1.49;83.07
37066;BME280;22981;43.080;25.550;2023-01-30T01:45:36;99988.71;;;1.47;82.94
37066;BME280;22981;43.080;25.550;2023-01-30T01:48:14;99989.70;;;1.46;82.95
37066;BME280;22981;43.080;25.550;2023-01-30T01:50:56;99986.69;;;1.45;82.90
37066;BME280;22981;43.080;25.550;2023-01-30T01:53:25;99980.92;;;1.45;82.79
37066;BME280;22981;43.080;25.550;2023-01-30T01:55:54;99980.09;;;1.45;82.69
37066;BME280;22981;43.080;25.550;2023-01-30T01:58:33;99982.06;;;1.43;82.69
37066;BME280;22981;43.080;25.550;2023-01-30T02:00:57;99980.05;;;1.41;82.63
37066;BME280;22981;43.080;25.550;2023-01-30T02:03:28;99976.58;;;1.40;82.56
37066;BME280;22981;43.080;25.550;2023-01-30T02:06:00;99981.38;;;1.41;82.55
37066;BME280;22981;43.080;25.550;2023-01-30T02:08:30;99966.69;;;1.38;82.45
37066;BME280;22981;43.080;25.550;2023-01-30T02:11:08;99966.69;;;1.38;82.45
37066;BME280;22981;43.080;25.550;2023-01-30T02:13:36;99965.86;;;1.38;82.32
37066;BME280;22981;43.080;25.550;2023-01-30T02:16:06;99965.86;;;1.38;82.32
37066;BME280;22981;43.080;25.550;2023-01-30T02:18:37;99967.67;;;1.37;82.26
37066;BME280;22981;43.080;25.550;2023-01-30T02:23:58;99962.03;;;1.36;82.18
37066;BME280;22981;43.080;25.550;2023-01-30T02:34:43;99955.88;;;1.32;81.91
37066;BME280;22981;43.080;25.550;2023-01-30T02:42:36;99957.31;;;1.26;81.71
37066;BME280;22981;43.080;25.550;2023-01-30T02:45:16;99960.73;;;1.22;81.66
37066;BME280;22981;43.080;25.550;2023-01-30T02:47:59;99960.73;;;1.22;81.66
37066;BME280;22981;43.080;25.550;2023-01-30T02:52:59;99956.28;;;1.23;81.66
37066;BME280;22981;43.080;25.550;2023-01-30T02:55:27;99958.91;;;1.23;81.64
37066;BME280;22981;43.080;25.550;2023-01-30T02:57:55;99964.34;;;1.21;81.61
37066;BME280;22981;43.080;25.550;2023-01-30T03:03:32;99963.70;;;1.23;81.57
37066;BME280;22981;43.080;25.550;2023-01-30T03:06:15;99965.51;;;1.23;81.47
37066;BME280;22981;43.080;25.550;2023-01-30T03:08:58;99958.09;;;1.22;81.41
37066;BME280;22981;43.080;25.550;2023-01-30T03:11:26;99961.71;;;1.21;81.35
37066;BME280;22981;43.080;25.550;2023-01-30T03:13:59;99960.06;;;1.20;81.33
37066;BME280;22981;43.080;25.550;2023-01-30T03:16:36;99962.33;;;1.19;81.24
37066;BME280;22981;43.080;25.550;2023-01-30T03:19:05;99957.22;;;1.18;81.13
37066;BME280;22981;43.080;25.550;2023-01-30T03:21:33;99958.04;;;1.18;80.99
37066;BME280;22981;43.080;25.550;2023-01-30T03:24:00;99960.68;;;1.18;80.87
37066;BME280;22981;43.080;25.550;2023-01-30T03:26:30;99961.02;;;1.19;80.78
37066;BME280;22981;43.080;25.550;2023-01-30T03:29:00;99958.38;;;1.19;80.70
37066;BME280;22981;43.080;25.550;2023-01-30T03:31:28;99957.55;;;1.19;80.63
37066;BME280;22981;43.080;25.550;2023-01-30T03:33:55;99954.58;;;1.18;80.53
37066;BME280;22981;43.080;25.550;2023-01-30T03:36:23;99958.87;;;1.19;80.51
37066;BME280;22981;43.080;25.550;2023-01-30T03:38:51;99955.89;;;1.18;80.34
37066;BME280;22981;43.080;25.550;2023-01-30T03:41:19;99955.89;;;1.18;80.34
37066;BME280;22981;43.080;25.550;2023-01-30T03:43:46;99955.41;;;1.18;80.22
37066;BME280;22981;43.080;25.550;2023-01-30T03:46:14;99958.53;;;1.18;80.16
37066;BME280;22981;43.080;25.550;2023-01-30T03:48:41;99958.20;;;1.17;80.05
37066;BME280;22981;43.080;25.550;2023-01-30T03:51:09;99956.18;;;1.15;79.84
37066;BME280;22981;43.080;25.550;2023-01-30T03:53:36;99955.84;;;1.14;79.63
37066;BME280;22981;43.080;25.550;2023-01-30T03:56:04;99962.23;;;1.11;79.38
37066;BME280;22981;43.080;25.550;2023-01-30T03:58:31;99950.19;;;1.09;79.20
37066;BME280;22981;43.080;25.550;2023-01-30T04:00:59;99948.05;;;1.08;79.07
37066;BME280;22981;43.080;25.550;2023-01-30T04:03:27;99941.24;;;1.06;78.96
37066;BME280;22981;43.080;25.550;2023-01-30T04:05:54;99942.72;;;1.04;78.80
37066;BME280;22981;43.080;25.550;2023-01-30T04:08:22;99936.26;;;1.03;78.78
37066;BME280;22981;43.080;25.550;2023-01-30T04:10:49;99929.33;;;1.02;78.77
37066;BME280;22981;43.080;25.550;2023-01-30T04:13:17;99928.17;;;1.00;78.72
37066;BME280;22981;43.080;25.550;2023-01-30T04:15:44;99919.56;;;0.98;78.73
37066;BME280;22981;43.080;25.550;2023-01-30T04:18:12;99921.86;;;0.97;78.68
37066;BME280;22981;43.080;25.550;2023-01-30T04:20:40;99916.59;;;0.97;78.78
37066;BME280;22981;43.080;25.550;2023-01-30T04:23:07;99918.24;;;0.98;78.86
37066;BME280;22981;43.080;25.550;2023-01-30T04:25:35;99923.72;;;1.00;78.86
37066;BME280;22981;43.080;25.550;2023-01-30T04:28:02;99917.80;;;1.03;78.87
37066;BME280;22981;43.080;25.550;2023-01-30T04:30:30;99920.31;;;1.04;78.82
37066;BME280;22981;43.080;25.550;2023-01-30T04:32:57;99916.69;;;1.05;78.78
37066;BME280;22981;43.080;25.550;2023-01-30T04:35:25;99916.53;;;1.07;78.75
37066;BME280;22981;43.080;25.550;2023-01-30T04:37:52;99913.89;;;1.07;78.73
37066;BME280;22981;43.080;25.550;2023-01-30T04:40:20;99917.84;;;1.07;78.72
37066;BME280;22981;43.080;25.550;2023-01-30T04:42:48;99912.24;;;1.06;78.80
37066;BME280;22981;43.080;25.550;2023-01-30T04:45:15;99918.34;;;1.06;78.77
37066;BME280;22981;43.080;25.550;2023-01-30T04:47:43;99924.80;;;1.08;78.65
37066;BME280;22981;43.080;25.550;2023-01-30T04:50:10;99918.98;;;1.04;78.54
37066;BME280;22981;43.080;25.550;2023-01-30T04:52:38;99917.67;;;1.04;78.57
37066;BME280;22981;43.080;25.550;2023-01-30T04:55:05;99918.98;;;1.04;78.64
37066;BME280;22981;43.080;25.550;2023-01-30T04:57:33;99911.91;;;1.05;78.66
37066;BME280;22981;43.080;25.550;2023-01-30T05:00:01;99914.39;;;1.06;78.68
37066;BME280;22981;43.080;25.550;2023-01-30T05:02:28;99914.05;;;1.05;78.65
37066;BME280;22981;43.080;25.550;2023-01-30T05:04:56;99911.91;;;1.05;78.65
37066;BME280;22981;43.080;25.550;2023-01-30T05:07:23;99919.33;;;1.05;78.63
37066;BME280;22981;43.080;25.550;2023-01-30T05:09:51;99923.98;;;1.07;78.62
37066;BME280;22981;43.080;25.550;2023-01-30T05:12:18;99920.48;;;1.07;78.51
37066;BME280;22981;43.080;25.550;2023-01-30T05:14:46;99920.98;;;1.06;78.45
37066;BME280;22981;43.080;25.550;2023-01-30T05:17:14;99920.48;;;1.07;78.44
37066;BME280;22981;43.080;25.550;2023-01-30T05:19:41;99926.13;;;1.08;78.43
37066;BME280;22981;43.080;25.550;2023-01-30T05:22:09;99925.30;;;1.07;78.41
37066;BME280;22981;43.080;25.550;2023-01-30T05:24:36;99927.77;;;1.09;78.40
37066;BME280;22981;43.080;25.550;2023-01-30T05:27:04;99923.33;;;1.09;78.38
37066;BME280;22981;43.080;25.550;2023-01-30T05:29:32;99922.99;;;1.08;78.37
37066;BME280;22981;43.080;25.550;2023-01-30T05:31:59;99922.99;;;1.08;78.34
37066;BME280;22981;43.080;25.550;2023-01-30T05:34:27;99917.23;;;1.09;78.36
37066;BME280;22981;43.080;25.550;2023-01-30T05:36:54;99922.01;;;1.09;78.33
37066;BME280;22981;43.080;25.550;2023-01-30T05:39:22;99924.80;;;1.08;78.36
37066;BME280;22981;43.080;25.550;2023-01-30T05:41:49;99929.38;;;1.06;78.33
37066;BME280;22981;43.080;25.550;2023-01-30T05:44:17;99930.03;;;1.04;78.34
37066;BME280;22981;43.080;25.550;2023-01-30T05:46:44;99927.73;;;1.05;78.36
37066;BME280;22981;43.080;25.550;2023-01-30T05:49:12;99929.20;;;1.03;78.36
37066;BME280;22981;43.080;25.550;2023-01-30T05:51:39;99934.48;;;1.03;78.36
37066;BME280;22981;43.080;25.550;2023-01-30T05:54:07;99934.48;;;1.03;78.36
37066;BME280;22981;43.080;25.550;2023-01-30T05:56:35;99937.23;;;1.02;78.36
37066;BME280;22981;43.080;25.550;2023-01-30T05:59:02;99932.80;;;1.02;78.35
37066;BME280;22981;43.080;25.550;2023-01-30T06:01:30;99935.59;;;1.00;78.35
37066;BME280;22981;43.080;25.550;2023-01-30T06:03:58;99936.41;;;1.01;78.35
37066;BME280;22981;43.080;25.550;2023-01-30T06:06:25;99933.78;;;1.01;78.32
37066;BME280;22981;43.080;25.550;2023-01-30T06:08:54;99930.31;;;1.00;78.32
37066;BME280;22981;43.080;25.550;2023-01-30T06:11:23;99929.00;;;1.00;78.31
37066;BME280;22981;43.080;25.550;2023-01-30T06:13:51;99936.62;;;1.04;78.37
37066;BME280;22981;43.080;25.550;2023-01-30T06:16:18;99935.97;;;1.06;78.39
37066;BME280;22981;43.080;25.550;2023-01-30T06:18:46;99938.48;;;1.07;78.39
37066;BME280;22981;43.080;25.550;2023-01-30T06:21:14;99940.13;;;1.08;78.39
37066;BME280;22981;43.080;25.550;2023-01-30T06:23:42;99937.63;;;1.07;78.37
37066;BME280;22981;43.080;25.550;2023-01-30T06:26:10;99937.63;;;1.07;78.37
37066;BME280;22981;43.080;25.550;2023-01-30T06:28:37;99942.61;;;1.10;78.38
37066;BME280;22981;43.080;25.550;2023-01-30T06:31:06;99943.94;;;1.10;78.33
37066;BME280;22981;43.080;25.550;2023-01-30T06:33:34;99947.27;;;1.12;78.31
37066;BME280;22981;43.080;25.550;2023-01-30T06:36:02;99944.97;;;1.13;78.29
37066;BME280;22981;43.080;25.550;2023-01-30T06:38:30;99939.20;;;1.13;78.23
37066;BME280;22981;43.080;25.550;2023-01-30T06:40:57;99941.67;;;1.15;78.19
37066;BME280;22981;43.080;25.550;2023-01-30T06:43:25;99941.55;;;1.16;78.13
37066;BME280;22981;43.080;25.550;2023-01-30T06:45:52;99939.86;;;1.15;78.09
37066;BME280;22981;43.080;25.550;2023-01-30T06:48:20;99933.43;;;1.14;78.01
37066;BME280;22981;43.080;25.550;2023-01-30T06:50:47;99933.92;;;1.13;78.00
37066;BME280;22981;43.080;25.550;2023-01-30T06:53:15;99933.27;;;1.15;78.06
37066;BME280;22981;43.080;25.550;2023-01-30T06:55:42;99939.30;;;1.21;78.01
37066;BME280;22981;43.080;25.550;2023-01-30T06:58:12;99933.73;;;1.24;78.00
37066;BME280;22981;43.080;25.550;2023-01-30T07:00:41;99932.09;;;1.28;77.92
37066;BME280;22981;43.080;25.550;2023-01-30T07:03:14;99937.42;;;1.32;77.86
37066;BME280;22981;43.080;25.550;2023-01-30T07:05:43;99934.82;;;1.36;77.77
37066;BME280;22981;43.080;25.550;2023-01-30T07:08:12;99933.22;;;1.39;77.70
37066;BME280;22981;43.080;25.550;2023-01-30T07:10:41;99932.56;;;1.41;77.58
37066;BME280;22981;43.080;25.550;2023-01-30T07:13:09;99929.42;;;1.37;77.33
37066;BME280;22981;43.080;25.550;2023-01-30T07:15:37;99928.43;;;1.38;77.31
37066;BME280;22981;43.080;25.550;2023-01-30T07:18:05;99931.41;;;1.39;77.08
37066;BME280;22981;43.080;25.550;2023-01-30T07:20:32;99930.91;;;1.40;77.08
37066;BME280;22981;43.080;25.550;2023-01-30T07:23:00;99933.75;;;1.42;77.07
37066;BME280;22981;43.080;25.550;2023-01-30T07:25:28;99928.16;;;1.45;76.92
37066;BME280;22981;43.080;25.550;2023-01-30T07:28:01;99928.16;;;1.45;76.92
37066;BME280;22981;43.080;25.550;2023-01-30T07:30:30;99935.82;;;1.53;76.79
37066;BME280;22981;43.080;25.550;2023-01-30T07:32:59;99930.05;;;1.53;76.58
37066;BME280;22981;43.080;25.550;2023-01-30T07:35:29;99920.81;;;1.53;76.42
37066;BME280;22981;43.080;25.550;2023-01-30T07:37:57;99919.37;;;1.55;76.29
37066;BME280;22981;43.080;25.550;2023-01-30T07:40:25;99924.98;;;1.56;76.15
37066;BME280;22981;43.080;25.550;2023-01-30T07:43:04;99924.81;;;1.57;76.06
37066;BME280;22981;43.080;25.550;2023-01-30T07:45:37;99917.72;;;1.58;75.88
37066;BME280;22981;43.080;25.550;2023-01-30T07:48:06;99917.88;;;1.56;75.35
37066;BME280;22981;43.080;25.550;2023-01-30T07:50:33;99917.88;;;1.56;75.35
37066;BME280;22981;43.080;25.550;2023-01-30T07:53:05;99919.24;;;1.60;75.74
37066;BME280;22981;43.080;25.550;2023-01-30T07:55:33;99922.91;;;1.63;75.59
37066;BME280;22981;43.080;25.550;2023-01-30T07:58:01;99914.83;;;1.65;75.49
37066;BME280;22981;43.080;25.550;2023-01-30T08:00:29;99914.38;;;1.69;75.48
37066;BME280;22981;43.080;25.550;2023-01-30T08:03:00;99909.63;;;1.73;75.40
37066;BME280;22981;43.080;25.550;2023-01-30T08:05:29;99913.12;;;1.78;75.41
37066;BME280;22981;43.080;25.550;2023-01-30T08:07:58;99913.80;;;1.80;75.04
37066;BME280;22981;43.080;25.550;2023-01-30T08:10:26;99916.44;;;1.80;74.79
37066;BME280;22981;43.080;25.550;2023-01-30T08:12:55;99913.62;;;1.77;74.77
37066;BME280;22981;43.080;25.550;2023-01-30T08:15:24;99910.53;;;1.82;74.77
37066;BME280;22981;43.080;25.550;2023-01-30T08:17:53;99910.06;;;1.86;74.73
37066;BME280;22981;43.080;25.550;2023-01-30T08:20:22;99907.13;;;1.89;74.66
37066;BME280;22981;43.080;25.550;2023-01-30T08:22:49;99907.79;;;1.91;74.49
37066;BME280;22981;43.080;25.550;2023-01-30T08:25:17;99903.53;;;1.94;74.37
37066;BME280;22981;43.080;25.550;2023-01-30T08:27:45;99907.53;;;1.98;74.12
37066;BME280;22981;43.080;25.550;2023-01-30T08:30:13;99904.09;;;2.02;74.01
37066;BME280;22981;43.080;25.550;2023-01-30T08:32:40;99896.67;;;2.02;73.65
37066;BME280;22981;43.080;25.550;2023-01-30T08:35:08;99893.20;;;2.05;73.67
37066;BME280;22981;43.080;25.550;2023-01-30T08:37:38;99898.02;;;2.06;73.11
37066;BME280;22981;43.080;25.550;2023-01-30T08:40:07;99898.02;;;2.06;73.11
37066;BME280;22981;43.080;25.550;2023-01-30T08:42:34;99896.20;;;2.06;73.07
37066;BME280;22981;43.080;25.550;2023-01-30T08:45:02;99899.80;;;2.05;73.06
37066;BME280;22981;43.080;25.550;2023-01-30T08:47:30;99897.03;;;2.07;73.30
37066;BME280;22981;43.080;25.550;2023-01-30T08:49:58;99886.56;;;2.01;72.54
37066;BME280;22981;43.080;25.550;2023-01-30T08:52:25;99886.56;;;2.01;72.54
37066;BME280;22981;43.080;25.550;2023-01-30T08:54:54;99891.02;;;2.00;72.68
37066;BME280;22981;43.080;25.550;2023-01-30T08:57:28;99897.33;;;2.04;72.65
37066;BME280;22981;43.080;25.550;2023-01-30T08:59:57;99886.56;;;2.01;72.28
37066;BME280;22981;43.080;25.550;2023-01-30T09:02:29;99885.64;;;2.06;72.58
37066;BME280;22981;43.080;25.550;2023-01-30T09:04:59;99885.64;;;2.06;72.58
37066;BME280;22981;43.080;25.550;2023-01-30T09:07:28;99879.53;;;2.06;72.55
37066;BME280;22981;43.080;25.550;2023-01-30T09:10:00;99885.50;;;2.12;72.48
37066;BME280;22981;43.080;25.550;2023-01-30T09:12:29;99883.88;;;2.15;72.39
37066;BME280;22981;43.080;25.550;2023-01-30T09:14:56;99873.31;;;2.15;72.12
37066;BME280;22981;43.080;25.550;2023-01-30T09:17:25;99869.35;;;2.15;72.10
37066;BME280;22981;43.080;25.550;2023-01-30T09:19:53;99872.48;;;2.18;72.02
37066;BME280;22981;43.080;25.550;2023-01-30T09:22:23;99874.80;;;2.17;71.81
37066;BME280;22981;43.080;25.550;2023-01-30T09:24:50;99870.89;;;2.25;71.84
37066;BME280;22981;43.080;25.550;2023-01-30T09:27:19;99857.70;;;2.30;71.57
37066;BME280;22981;43.080;25.550;2023-01-30T09:29:47;99857.70;;;2.30;71.57
37066;BME280;22981;43.080;25.550;2023-01-30T09:32:15;99846.66;;;2.34;71.78
37066;BME280;22981;43.080;25.550;2023-01-30T09:34:42;99843.05;;;2.39;71.21
37066;BME280;22981;43.080;25.550;2023-01-30T09:37:10;99843.05;;;2.39;71.21
37066;BME280;22981;43.080;25.550;2023-01-30T09:39:37;99837.79;;;2.43;71.03
37066;BME280;22981;43.080;25.550;2023-01-30T09:50:52;99827.70;;;2.81;69.62
37066;BME280;22981;43.080;25.550;2023-01-30T09:55:58;99809.25;;;3.01;68.90
37066;BME280;22981;43.080;25.550;2023-01-30T09:58:31;99804.14;;;3.20;68.72
37066;BME280;22981;43.080;25.550;2023-01-30T10:01:01;99795.39;;;3.69;68.43
37066;BME280;22981;43.080;25.550;2023-01-30T10:06:11;99788.56;;;3.95;67.69
37066;BME280;22981;43.080;25.550;2023-01-30T10:20:15;99760.92;;;4.37;65.81
37066;BME280;22981;43.080;25.550;2023-01-30T10:27:44;99750.71;;;4.25;65.94
37066;BME280;22981;43.080;25.550;2023-01-30T10:30:12;99741.58;;;4.28;65.88
37066;BME280;22981;43.080;25.550;2023-01-30T10:32:53;99729.77;;;4.43;65.74
37066;BME280;22981;43.080;25.550;2023-01-30T10:35:19;99730.73;;;4.50;65.00
37066;BME280;22981;43.080;25.550;2023-01-30T10:40:49;99725.53;;;4.84;64.59
37066;BME280;22981;43.080;25.550;2023-01-30T10:43:30;99720.97;;;4.96;64.14
37066;BME280;22981;43.080;25.550;2023-01-30T10:48:44;99717.78;;;4.78;63.87
37066;BME280;22981;43.080;25.550;2023-01-30T10:59:33;99699.91;;;4.45;64.05
37066;BME280;22981;43.080;25.550;2023-01-30T11:02:05;99691.87;;;4.34;64.21
37066;BME280;22981;43.080;25.550;2023-01-30T11:07:00;99674.88;;;4.20;64.28
37066;BME280;22981;43.080;25.550;2023-01-30T11:09:45;99665.59;;;4.24;64.12
37066;BME280;22981;43.080;25.550;2023-01-30T11:12:10;99666.19;;;4.35;63.60
37066;BME280;22981;43.080;25.550;2023-01-30T11:14:55;99659.53;;;4.39;63.41
37066;BME280;22981;43.080;25.550;2023-01-30T11:20:06;99649.70;;;4.47;63.30
37066;BME280;22981;43.080;25.550;2023-01-30T11:22:30;99647.11;;;4.62;62.91
37066;BME280;22981;43.080;25.550;2023-01-30T11:25:03;99646.20;;;4.74;62.09
37066;BME280;22981;43.080;25.550;2023-01-30T11:27:32;99644.80;;;4.63;61.94
37066;BME280;22981;43.080;25.550;2023-01-30T11:30:12;99640.98;;;4.62;61.71
37066;BME280;22981;43.080;25.550;2023-01-30T11:32:42;99626.09;;;4.80;61.93
37066;BME280;22981;43.080;25.550;2023-01-30T11:37:44;99622.80;;;4.59;62.07
37066;BME280;22981;43.080;25.550;2023-01-30T11:43:01;99618.05;;;4.50;62.32
37066;BME280;22981;43.080;25.550;2023-01-30T11:45:21;99611.51;;;4.38;62.45
37066;BME280;22981;43.080;25.550;2023-01-30T11:47:53;99615.37;;;4.27;62.84
37066;BME280;22981;43.080;25.550;2023-01-30T11:50:25;99609.30;;;4.18;63.09
37066;BME280;22981;43.080;25.550;2023-01-30T11:52:52;99608.39;;;4.07;62.95
37066;BME280;22981;43.080;25.550;2023-01-30T11:55:20;99608.45;;;3.95;63.17
37066;BME280;22981;43.080;25.550;2023-01-30T11:57:50;99598.04;;;3.85;63.53
37066;BME280;22981;43.080;25.550;2023-01-30T12:00:28;99591.44;;;3.81;63.75
37066;BME280;22981;43.080;25.550;2023-01-30T12:02:53;99587.98;;;3.76;63.74
37066;BME280;22981;43.080;25.550;2023-01-30T12:05:29;99589.83;;;3.72;63.83
37066;BME280;22981;43.080;25.550;2023-01-30T12:08:09;99581.11;;;3.59;63.73
37066;BME280;22981;43.080;25.550;2023-01-30T12:10:28;99573.38;;;3.49;63.95
37066;BME280;22981;43.080;25.550;2023-01-30T12:13:01;99572.07;;;3.45;64.08
37066;BME280;22981;43.080;25.550;2023-01-30T12:15:28;99575.06;;;3.38;63.98
37066;BME280;22981;43.080;25.550;2023-01-30T12:18:13;99568.16;;;3.29;64.06
37066;BME280;22981;43.080;25.550;2023-01-30T12:23:17;99562.23;;;3.19;64.09
37066;BME280;22981;43.080;25.550;2023-01-30T12:26:04;99557.78;;;3.15;64.09
37066;BME280;22981;43.080;25.550;2023-01-30T12:31:08;99545.88;;;3.11;64.31
37066;BME280;22981;43.080;25.550;2023-01-30T12:33:33;99551.36;;;3.10;64.36
37066;BME280;22981;43.080;25.550;2023-01-30T12:42:16;99542.11;;;3.01;64.47
37066;BME280;22981;43.080;25.550;2023-01-30T12:44:59;99541.81;;;2.92;64.43
37066;BME280;22981;43.080;25.550;2023-01-30T12:56:16;99538.98;;;2.90;65.03
37066;BME280;22981;43.080;25.550;2023-01-30T12:58:50;99543.95;;;2.89;65.10
37066;BME280;22981;43.080;25.550;2023-01-30T13:01:19;99534.03;;;2.87;65.19
37066;BME280;22981;43.080;25.550;2023-01-30T13:09:49;99523.80;;;2.88;65.44
37066;BME280;22981;43.080;25.550;2023-01-30T13:20:55;99513.89;;;2.82;65.42
37066;BME280;22981;43.080;25.550;2023-01-30T13:26:02;99507.97;;;2.67;65.51
37066;BME280;22981;43.080;25.550;2023-01-30T13:28:35;99507.16;;;2.67;65.62
37066;BME280;22981;43.080;25.550;2023-01-30T13:31:00;99507.80;;;2.65;65.74
37066;BME280;22981;43.080;25.550;2023-01-30T13:33:32;99507.48;;;2.64;65.77
37066;BME280;22981;43.080;25.550;2023-01-30T13:36:22;99505.84;;;2.63;65.84
37066;BME280;22981;43.080;25.550;2023-01-30T13:41:50;99497.91;;;2.63;65.83
37066;BME280;22981;43.080;25.550;2023-01-30T13:44:22;99494.45;;;2.58;65.80
37066;BME280;22981;43.080;25.550;2023-01-30T13:46:51;99492.63;;;2.55;65.79
37066;BME280;22981;43.080;25.550;2023-01-30T13:49:41;99490.48;;;2.54;65.81
37066;BME280;22981;43.080;25.550;2023-01-30T13:52:02;99481.42;;;2.44;65.86
37066;BME280;22981;43.080;25.550;2023-01-30T13:54:50;99481.42;;;2.44;65.86
37066;BME280;22981;43.080;25.550;2023-01-30T13:57:52;99478.10;;;2.46;65.97
37066;BME280;22981;43.080;25.550;2023-01-30T14:11:49;99472.81;;;2.46;66.27
37066;BME280;22981;43.080;25.550;2023-01-30T14:14:25;99467.70;;;2.45;66.32
37066;BME280;22981;43.080;25.550;2023-01-30T14:17:14;99464.56;;;2.45;66.38
37066;BME280;22981;43.080;25.550;2023-01-30T14:22:46;99465.56;;;2.48;66.60
37066;BME280;22981;43.080;25.550;2023-01-30T14:30:46;99455.80;;;2.57;66.70
37066;BME280;22981;43.080;25.550;2023-01-30T14:38:32;99456.77;;;2.56;66.79
37066;BME280;22981;43.080;25.550;2023-01-30T14:48:51;99446.86;;;2.62;67.01
37066;BME280;22981;43.080;25.550;2023-01-30T14:56:52;99440.10;;;2.51;67.09
37066;BME280;22981;43.080;25.550;2023-01-30T15:02:05;99439.28;;;2.47;67.19
37066;BME280;22981;43.080;25.550;2023-01-30T15:07:37;99433.51;;;2.43;67.38
37066;BME280;22981;43.080;25.550;2023-01-30T15:10:16;99441.11;;;2.42;67.42
37066;BME280;22981;43.080;25.550;2023-01-30T15:15:31;99435.02;;;2.38;67.47
37066;BME280;22981;43.080;25.550;2023-01-30T15:21:30;99434.02;;;2.26;67.68
37066;BME280;22981;43.080;25.550;2023-01-30T15:26:53;99420.86;;;2.14;67.83
37066;BME280;22981;43.080;25.550;2023-01-30T15:29:24;99420.18;;;2.12;67.92
37066;BME280;22981;43.080;25.550;2023-01-30T15:31:59;99417.05;;;2.09;67.91
37066;BME280;22981;43.080;25.550;2023-01-30T15:34:29;99424.82;;;2.06;67.96
37066;BME280;22981;43.080;25.550;2023-01-30T15:36:57;99420.69;;;2.04;68.01
37066;BME280;22981;43.080;25.550;2023-01-30T15:39:26;99418.72;;;1.97;68.22
37066;BME280;22981;43.080;25.550;2023-01-30T15:41:59;99413.76;;;1.98;68.16
37066;BME280;22981;43.080;25.550;2023-01-30T15:44:38;99421.36;;;1.97;68.23
37066;BME280;22981;43.080;25.550;2023-01-30T15:47:38;99420.53;;;1.93;68.28
37066;BME280;22981;43.080;25.550;2023-01-30T15:50:08;99414.25;;;1.86;68.27
37066;BME280;22981;43.080;25.550;2023-01-30T15:52:38;99421.35;;;1.85;68.27
37066;BME280;22981;43.080;25.550;2023-01-30T15:55:19;99420.35;;;1.82;68.51
37066;BME280;22981;43.080;25.550;2023-01-30T15:57:48;99420.35;;;1.82;68.51
37066;BME280;22981;43.080;25.550;2023-01-30T16:00:27;99416.71;;;1.79;68.41
37066;BME280;22981;43.080;25.550;2023-01-30T16:02:45;99419.53;;;1.78;68.38
37066;BME280;22981;43.080;25.550;2023-01-30T16:05:15;99419.70;;;1.76;68.34